sensor_id;sensor_type;location;lat;lon;timestamp;temperature;humidity
70300;HTU21D;57704;51.112;5.878;2022-07-06T00:01:49;17.36;55.36
70300;HTU21D;57704;51.112;5.878;2022-07-06T00:04:17;17.32;55.46
70300;HTU21D;57704;51.112;5.878;2022-07-06T00:06:44;17.28;55.57
70300;HTU21D;57704;51.112;5.878;2022-07-06T00:09:10;17.25;55.62
70300;HTU21D;57704;51.112;5.878;2022-07-06T00:11:36;17.23;55.59
70300;HTU21D;57704;51.112;5.878;2022-07-06T00:14:03;17.21;55.61
70300;HTU21D;57704;51.112;5.878;2022-07-06T00:16:29;17.20;55.65
70300;HTU21D;57704;51.112;5.878;2022-07-06T00:18:56;17.15;55.88
70300;HTU21D;57704;51.112;5.878;2022-07-06T00:21:23;17.11;55.94
70300;HTU21D;57704;51.112;5.878;2022-07-06T00:23:49;17.08;56.05
70300;HTU21D;57704;51.112;5.878;2022-07-06T00:26:18;17.02;56.04
70300;HTU21D;57704;51.112;5.878;2022-07-06T00:28:44;16.99;56.26
70300;HTU21D;57704;51.112;5.878;2022-07-06T00:31:11;16.96;56.45
70300;HTU21D;57704;51.112;5.878;2022-07-06T00:33:38;16.93;56.58
70300;HTU21D;57704;51.112;5.878;2022-07-06T00:36:04;16.91;56.85
70300;HTU21D;57704;51.112;5.878;2022-07-06T00:38:31;16.89;57.03
70300;HTU21D;57704;51.112;5.878;2022-07-06T00:40:57;16.87;57.08
70300;HTU21D;57704;51.112;5.878;2022-07-06T00:43:23;16.84;57.15
70300;HTU21D;57704;51.112;5.878;2022-07-06T00:45:49;16.82;57.32
70300;HTU21D;57704;51.112;5.878;2022-07-06T00:48:15;16.80;57.29
70300;HTU21D;57704;51.112;5.878;2022-07-06T00:50:42;16.78;57.44
70300;HTU21D;57704;51.112;5.878;2022-07-06T00:53:09;16.77;57.58
70300;HTU21D;57704;51.112;5.878;2022-07-06T00:55:38;16.76;57.81
70300;HTU21D;57704;51.112;5.878;2022-07-06T00:58:10;16.73;57.87
70300;HTU21D;57704;51.112;5.878;2022-07-06T01:00:36;16.70;58.04
70300;HTU21D;57704;51.112;5.878;2022-07-06T01:03:04;16.67;58.03
70300;HTU21D;57704;51.112;5.878;2022-07-06T01:05:30;16.67;58.13
70300;HTU21D;57704;51.112;5.878;2022-07-06T01:07:56;16.67;58.17
70300;HTU21D;57704;51.112;5.878;2022-07-06T01:10:23;16.65;58.34
70300;HTU21D;57704;51.112;5.878;2022-07-06T01:12:50;16.64;58.48
70300;HTU21D;57704;51.112;5.878;2022-07-06T01:15:22;16.63;58.54
70300;HTU21D;57704;51.112;5.878;2022-07-06T01:17:49;16.58;58.74
70300;HTU21D;57704;51.112;5.878;2022-07-06T01:20:17;16.54;59.07
70300;HTU21D;57704;51.112;5.878;2022-07-06T01:22:46;16.44;59.13
70300;HTU21D;57704;51.112;5.878;2022-07-06T01:25:13;16.41;59.18
70300;HTU21D;57704;51.112;5.878;2022-07-06T01:27:40;16.39;59.25
70300;HTU21D;57704;51.112;5.878;2022-07-06T01:30:13;16.31;59.36
70300;HTU21D;57704;51.112;5.878;2022-07-06T01:32:41;16.31;59.53
70300;HTU21D;57704;51.112;5.878;2022-07-06T01:35:09;16.31;59.56
70300;HTU21D;57704;51.112;5.878;2022-07-06T01:37:36;16.31;59.63
70300;HTU21D;57704;51.112;5.878;2022-07-06T01:40:05;16.26;59.62
70300;HTU21D;57704;51.112;5.878;2022-07-06T01:42:32;16.24;59.74
70300;HTU21D;57704;51.112;5.878;2022-07-06T01:44:59;16.24;59.76
70300;HTU21D;57704;51.112;5.878;2022-07-06T01:47:25;16.22;59.89
70300;HTU21D;57704;51.112;5.878;2022-07-06T01:49:52;16.20;59.99
70300;HTU21D;57704;51.112;5.878;2022-07-06T01:52:18;16.20;60.14
70300;HTU21D;57704;51.112;5.878;2022-07-06T01:54:45;16.18;60.28
70300;HTU21D;57704;51.112;5.878;2022-07-06T01:57:11;16.15;60.33
70300;HTU21D;57704;51.112;5.878;2022-07-06T01:59:38;16.16;60.36
70300;HTU21D;57704;51.112;5.878;2022-07-06T02:02:04;16.15;60.51
70300;HTU21D;57704;51.112;5.878;2022-07-06T02:04:30;16.13;60.73
70300;HTU21D;57704;51.112;5.878;2022-07-06T02:06:57;16.07;60.82
70300;HTU21D;57704;51.112;5.878;2022-07-06T02:09:24;16.07;61.15
70300;HTU21D;57704;51.112;5.878;2022-07-06T02:11:50;16.08;61.12
70300;HTU21D;57704;51.112;5.878;2022-07-06T02:14:16;16.07;61.19
70300;HTU21D;57704;51.112;5.878;2022-07-06T02:16:42;16.05;61.23
70300;HTU21D;57704;51.112;5.878;2022-07-06T02:19:08;16.06;61.28
70300;HTU21D;57704;51.112;5.878;2022-07-06T02:21:34;16.05;61.31
70300;HTU21D;57704;51.112;5.878;2022-07-06T02:24:00;16.00;61.32
70300;HTU21D;57704;51.112;5.878;2022-07-06T02:26:28;15.99;61.43
70300;HTU21D;57704;51.112;5.878;2022-07-06T02:28:57;15.98;61.61
70300;HTU21D;57704;51.112;5.878;2022-07-06T02:31:23;15.99;61.53
70300;HTU21D;57704;51.112;5.878;2022-07-06T02:33:50;16.00;61.57
70300;HTU21D;57704;51.112;5.878;2022-07-06T02:36:16;15.98;61.58
70300;HTU21D;57704;51.112;5.878;2022-07-06T02:38:43;15.97;61.49
70300;HTU21D;57704;51.112;5.878;2022-07-06T02:41:10;15.96;61.56
70300;HTU21D;57704;51.112;5.878;2022-07-06T02:43:37;15.91;61.76
70300;HTU21D;57704;51.112;5.878;2022-07-06T02:46:05;15.87;62.05
70300;HTU21D;57704;51.112;5.878;2022-07-06T02:48:31;15.82;62.18
70300;HTU21D;57704;51.112;5.878;2022-07-06T02:50:57;15.82;62.19
70300;HTU21D;57704;51.112;5.878;2022-07-06T02:53:25;15.81;62.18
70300;HTU21D;57704;51.112;5.878;2022-07-06T02:55:54;15.81;62.15
70300;HTU21D;57704;51.112;5.878;2022-07-06T02:58:20;15.78;62.18
70300;HTU21D;57704;51.112;5.878;2022-07-06T03:00:47;15.75;62.26
70300;HTU21D;57704;51.112;5.878;2022-07-06T03:03:14;15.75;62.29
70300;HTU21D;57704;51.112;5.878;2022-07-06T03:05:40;15.76;62.39
70300;HTU21D;57704;51.112;5.878;2022-07-06T03:08:06;15.73;62.45
70300;HTU21D;57704;51.112;5.878;2022-07-06T03:10:34;15.72;62.65
70300;HTU21D;57704;51.112;5.878;2022-07-06T03:13:00;15.68;62.61
70300;HTU21D;57704;51.112;5.878;2022-07-06T03:15:26;15.66;62.75
70300;HTU21D;57704;51.112;5.878;2022-07-06T03:17:52;15.63;62.81
70300;HTU21D;57704;51.112;5.878;2022-07-06T03:20:19;15.60;62.92
70300;HTU21D;57704;51.112;5.878;2022-07-06T03:22:46;15.60;62.97
70300;HTU21D;57704;51.112;5.878;2022-07-06T03:25:14;15.59;62.98
70300;HTU21D;57704;51.112;5.878;2022-07-06T03:27:41;15.57;63.05
70300;HTU21D;57704;51.112;5.878;2022-07-06T03:30:09;15.56;63.17
70300;HTU21D;57704;51.112;5.878;2022-07-06T03:32:36;15.55;63.23
70300;HTU21D;57704;51.112;5.878;2022-07-06T03:35:05;15.54;63.20
70300;HTU21D;57704;51.112;5.878;2022-07-06T03:37:33;15.56;63.18
70300;HTU21D;57704;51.112;5.878;2022-07-06T03:39:59;15.55;63.23
70300;HTU21D;57704;51.112;5.878;2022-07-06T03:42:25;15.55;63.35
70300;HTU21D;57704;51.112;5.878;2022-07-06T03:44:52;15.53;63.44
70300;HTU21D;57704;51.112;5.878;2022-07-06T03:47:18;15.54;63.40
70300;HTU21D;57704;51.112;5.878;2022-07-06T03:49:45;15.55;63.37
70300;HTU21D;57704;51.112;5.878;2022-07-06T03:52:11;15.57;63.33
70300;HTU21D;57704;51.112;5.878;2022-07-06T03:54:44;15.58;63.26
70300;HTU21D;57704;51.112;5.878;2022-07-06T03:57:15;15.60;63.28
70300;HTU21D;57704;51.112;5.878;2022-07-06T03:59:43;15.59;63.35
70300;HTU21D;57704;51.112;5.878;2022-07-06T04:02:09;15.59;63.33
70300;HTU21D;57704;51.112;5.878;2022-07-06T04:04:36;15.62;63.35
70300;HTU21D;57704;51.112;5.878;2022-07-06T04:07:03;15.65;63.33
70300;HTU21D;57704;51.112;5.878;2022-07-06T04:09:30;15.62;63.35
70300;HTU21D;57704;51.112;5.878;2022-07-06T04:11:58;15.66;63.31
70300;HTU21D;57704;51.112;5.878;2022-07-06T04:14:25;15.67;63.44
70300;HTU21D;57704;51.112;5.878;2022-07-06T04:16:53;15.68;63.56
70300;HTU21D;57704;51.112;5.878;2022-07-06T04:19:20;15.68;63.63
70300;HTU21D;57704;51.112;5.878;2022-07-06T04:21:47;15.71;63.68
70300;HTU21D;57704;51.112;5.878;2022-07-06T04:24:14;15.75;63.59
70300;HTU21D;57704;51.112;5.878;2022-07-06T04:26:40;15.80;63.64
70300;HTU21D;57704;51.112;5.878;2022-07-06T04:29:06;15.82;63.64
70300;HTU21D;57704;51.112;5.878;2022-07-06T04:31:33;15.83;63.53
70300;HTU21D;57704;51.112;5.878;2022-07-06T04:33:59;15.86;63.47
70300;HTU21D;57704;51.112;5.878;2022-07-06T04:36:25;15.91;63.40
70300;HTU21D;57704;51.112;5.878;2022-07-06T04:38:52;15.93;63.37
70300;HTU21D;57704;51.112;5.878;2022-07-06T04:41:19;15.96;63.27
70300;HTU21D;57704;51.112;5.878;2022-07-06T04:43:46;15.99;63.27
70300;HTU21D;57704;51.112;5.878;2022-07-06T04:46:21;15.99;63.27
70300;HTU21D;57704;51.112;5.878;2022-07-06T04:48:50;16.02;63.36
70300;HTU21D;57704;51.112;5.878;2022-07-06T04:51:22;16.07;63.24
70300;HTU21D;57704;51.112;5.878;2022-07-06T04:53:48;16.10;63.04
70300;HTU21D;57704;51.112;5.878;2022-07-06T04:56:15;16.13;63.02
70300;HTU21D;57704;51.112;5.878;2022-07-06T04:58:42;16.16;62.97
70300;HTU21D;57704;51.112;5.878;2022-07-06T05:01:12;16.21;62.88
70300;HTU21D;57704;51.112;5.878;2022-07-06T05:03:38;16.25;62.70
70300;HTU21D;57704;51.112;5.878;2022-07-06T05:06:08;16.21;62.69
70300;HTU21D;57704;51.112;5.878;2022-07-06T05:08:34;16.25;62.65
70300;HTU21D;57704;51.112;5.878;2022-07-06T05:11:01;16.30;62.66
70300;HTU21D;57704;51.112;5.878;2022-07-06T05:13:27;16.34;62.50
70300;HTU21D;57704;51.112;5.878;2022-07-06T05:15:54;16.41;62.31
70300;HTU21D;57704;51.112;5.878;2022-07-06T05:18:21;16.46;62.10
70300;HTU21D;57704;51.112;5.878;2022-07-06T05:20:47;16.54;61.87
70300;HTU21D;57704;51.112;5.878;2022-07-06T05:23:13;16.58;61.75
70300;HTU21D;57704;51.112;5.878;2022-07-06T05:25:40;16.62;61.69
70300;HTU21D;57704;51.112;5.878;2022-07-06T05:28:07;16.61;61.70
70300;HTU21D;57704;51.112;5.878;2022-07-06T05:30:33;16.57;61.76
70300;HTU21D;57704;51.112;5.878;2022-07-06T05:33:00;16.59;62.01
70300;HTU21D;57704;51.112;5.878;2022-07-06T05:35:26;16.64;62.06
70300;HTU21D;57704;51.112;5.878;2022-07-06T05:37:53;16.73;62.05
70300;HTU21D;57704;51.112;5.878;2022-07-06T05:40:19;16.78;61.96
70300;HTU21D;57704;51.112;5.878;2022-07-06T05:42:46;16.82;61.76
70300;HTU21D;57704;51.112;5.878;2022-07-06T05:45:13;16.86;61.59
70300;HTU21D;57704;51.112;5.878;2022-07-06T05:47:40;16.91;61.51
70300;HTU21D;57704;51.112;5.878;2022-07-06T05:50:25;16.99;61.44
70300;HTU21D;57704;51.112;5.878;2022-07-06T05:52:59;17.05;61.40
70300;HTU21D;57704;51.112;5.878;2022-07-06T05:55:28;17.10;61.27
70300;HTU21D;57704;51.112;5.878;2022-07-06T05:57:56;17.16;61.20
70300;HTU21D;57704;51.112;5.878;2022-07-06T06:00:26;17.22;61.08
70300;HTU21D;57704;51.112;5.878;2022-07-06T06:03:01;17.30;60.96
70300;HTU21D;57704;51.112;5.878;2022-07-06T06:05:28;17.35;61.09
70300;HTU21D;57704;51.112;5.878;2022-07-06T06:08:00;17.43;60.98
70300;HTU21D;57704;51.112;5.878;2022-07-06T06:10:27;17.52;60.58
70300;HTU21D;57704;51.112;5.878;2022-07-06T06:12:57;17.58;60.54
70300;HTU21D;57704;51.112;5.878;2022-07-06T06:15:23;17.68;60.38
70300;HTU21D;57704;51.112;5.878;2022-07-06T06:17:50;17.76;60.37
70300;HTU21D;57704;51.112;5.878;2022-07-06T06:20:16;17.84;60.25
70300;HTU21D;57704;51.112;5.878;2022-07-06T06:25:16;18.07;59.92
70300;HTU21D;57704;51.112;5.878;2022-07-06T06:27:44;18.19;59.55
70300;HTU21D;57704;51.112;5.878;2022-07-06T06:30:11;18.21;59.22
70300;HTU21D;57704;51.112;5.878;2022-07-06T06:32:38;18.28;59.27
70300;HTU21D;57704;51.112;5.878;2022-07-06T06:35:05;18.39;59.09
70300;HTU21D;57704;51.112;5.878;2022-07-06T06:37:32;18.55;58.61
70300;HTU21D;57704;51.112;5.878;2022-07-06T06:40:00;18.66;58.19
70300;HTU21D;57704;51.112;5.878;2022-07-06T06:42:27;18.78;58.09
70300;HTU21D;57704;51.112;5.878;2022-07-06T06:44:53;18.95;57.68
70300;HTU21D;57704;51.112;5.878;2022-07-06T06:47:20;19.13;57.40
70300;HTU21D;57704;51.112;5.878;2022-07-06T06:49:46;19.30;56.76
70300;HTU21D;57704;51.112;5.878;2022-07-06T06:52:13;19.39;56.37
70300;HTU21D;57704;51.112;5.878;2022-07-06T06:54:40;19.51;55.81
70300;HTU21D;57704;51.112;5.878;2022-07-06T06:57:06;19.66;55.61
70300;HTU21D;57704;51.112;5.878;2022-07-06T06:59:33;19.79;55.72
70300;HTU21D;57704;51.112;5.878;2022-07-06T07:01:59;19.98;54.95
70300;HTU21D;57704;51.112;5.878;2022-07-06T07:04:28;20.15;54.08
70300;HTU21D;57704;51.112;5.878;2022-07-06T07:06:56;20.31;53.48
70300;HTU21D;57704;51.112;5.878;2022-07-06T07:09:23;20.35;52.46
70300;HTU21D;57704;51.112;5.878;2022-07-06T07:11:49;20.32;52.11
70300;HTU21D;57704;51.112;5.878;2022-07-06T07:14:15;20.36;52.07
70300;HTU21D;57704;51.112;5.878;2022-07-06T07:16:41;20.45;52.49
70300;HTU21D;57704;51.112;5.878;2022-07-06T07:19:07;20.65;52.25
70300;HTU21D;57704;51.112;5.878;2022-07-06T07:21:33;20.84;51.17
70300;HTU21D;57704;51.112;5.878;2022-07-06T07:24:00;20.94;51.04
70300;HTU21D;57704;51.112;5.878;2022-07-06T07:26:26;21.16;50.24
70300;HTU21D;57704;51.112;5.878;2022-07-06T07:28:52;21.38;50.56
70300;HTU21D;57704;51.112;5.878;2022-07-06T07:31:18;21.66;50.27
70300;HTU21D;57704;51.112;5.878;2022-07-06T07:33:44;21.89;49.70
70300;HTU21D;57704;51.112;5.878;2022-07-06T07:36:10;22.18;48.58
70300;HTU21D;57704;51.112;5.878;2022-07-06T07:38:37;22.31;48.34
70300;HTU21D;57704;51.112;5.878;2022-07-06T07:41:03;22.56;48.24
70300;HTU21D;57704;51.112;5.878;2022-07-06T07:43:29;22.96;47.61
70300;HTU21D;57704;51.112;5.878;2022-07-06T07:45:58;23.28;45.83
70300;HTU21D;57704;51.112;5.878;2022-07-06T07:48:24;23.49;44.50
70300;HTU21D;57704;51.112;5.878;2022-07-06T07:50:50;23.68;44.82
70300;HTU21D;57704;51.112;5.878;2022-07-06T07:53:17;23.82;43.95
70300;HTU21D;57704;51.112;5.878;2022-07-06T07:55:43;23.96;42.97
70300;HTU21D;57704;51.112;5.878;2022-07-06T07:58:09;23.96;42.73
70300;HTU21D;57704;51.112;5.878;2022-07-06T08:00:35;23.92;41.71
70300;HTU21D;57704;51.112;5.878;2022-07-06T08:03:02;23.65;41.26
70300;HTU21D;57704;51.112;5.878;2022-07-06T08:05:27;23.39;42.73
70300;HTU21D;57704;51.112;5.878;2022-07-06T08:07:54;23.61;43.28
70300;HTU21D;57704;51.112;5.878;2022-07-06T08:10:20;23.89;42.59
70300;HTU21D;57704;51.112;5.878;2022-07-06T08:12:47;24.05;41.00
70300;HTU21D;57704;51.112;5.878;2022-07-06T08:15:13;24.06;40.16
70300;HTU21D;57704;51.112;5.878;2022-07-06T08:17:39;23.90;40.57
70300;HTU21D;57704;51.112;5.878;2022-07-06T08:20:07;23.99;41.16
70300;HTU21D;57704;51.112;5.878;2022-07-06T08:22:36;24.33;39.73
70300;HTU21D;57704;51.112;5.878;2022-07-06T08:25:03;24.55;39.10
70300;HTU21D;57704;51.112;5.878;2022-07-06T08:27:29;24.68;39.34
70300;HTU21D;57704;51.112;5.878;2022-07-06T08:29:55;24.79;38.98
70300;HTU21D;57704;51.112;5.878;2022-07-06T08:32:21;24.74;37.81
70300;HTU21D;57704;51.112;5.878;2022-07-06T08:34:47;24.72;38.98
70300;HTU21D;57704;51.112;5.878;2022-07-06T08:37:14;24.91;38.56
70300;HTU21D;57704;51.112;5.878;2022-07-06T08:39:40;24.83;37.89
70300;HTU21D;57704;51.112;5.878;2022-07-06T08:42:07;24.83;37.81
70300;HTU21D;57704;51.112;5.878;2022-07-06T08:44:36;24.77;37.54
70300;HTU21D;57704;51.112;5.878;2022-07-06T08:47:05;24.66;37.93
70300;HTU21D;57704;51.112;5.878;2022-07-06T08:49:35;24.69;38.02
70300;HTU21D;57704;51.112;5.878;2022-07-06T08:52:04;24.76;38.41
70300;HTU21D;57704;51.112;5.878;2022-07-06T08:54:31;25.03;38.86
70300;HTU21D;57704;51.112;5.878;2022-07-06T08:56:58;25.45;38.20
70300;HTU21D;57704;51.112;5.878;2022-07-06T08:59:25;25.77;36.70
70300;HTU21D;57704;51.112;5.878;2022-07-06T09:01:52;25.95;36.10
70300;HTU21D;57704;51.112;5.878;2022-07-06T09:04:22;26.15;35.24
70300;HTU21D;57704;51.112;5.878;2022-07-06T09:06:50;26.50;34.58
70300;HTU21D;57704;51.112;5.878;2022-07-06T09:09:22;26.68;33.87
70300;HTU21D;57704;51.112;5.878;2022-07-06T09:11:49;26.64;34.05
70300;HTU21D;57704;51.112;5.878;2022-07-06T09:14:16;26.33;33.98
70300;HTU21D;57704;51.112;5.878;2022-07-06T09:16:42;25.88;34.82
70300;HTU21D;57704;51.112;5.878;2022-07-06T09:19:12;25.52;35.31
70300;HTU21D;57704;51.112;5.878;2022-07-06T09:21:39;25.20;35.74
70300;HTU21D;57704;51.112;5.878;2022-07-06T09:24:12;24.99;36.08
70300;HTU21D;57704;51.112;5.878;2022-07-06T09:26:40;25.03;36.56
70300;HTU21D;57704;51.112;5.878;2022-07-06T09:29:06;25.36;35.93
70300;HTU21D;57704;51.112;5.878;2022-07-06T09:31:33;25.81;34.99
70300;HTU21D;57704;51.112;5.878;2022-07-06T09:34:09;25.79;34.61
70300;HTU21D;57704;51.112;5.878;2022-07-06T09:36:43;25.71;34.75
70300;HTU21D;57704;51.112;5.878;2022-07-06T09:39:18;25.79;34.79
70300;HTU21D;57704;51.112;5.878;2022-07-06T09:41:48;26.05;34.02
70300;HTU21D;57704;51.112;5.878;2022-07-06T09:44:28;26.06;34.00
70300;HTU21D;57704;51.112;5.878;2022-07-06T09:46:56;26.22;32.81
70300;HTU21D;57704;51.112;5.878;2022-07-06T09:49:23;25.98;34.02
70300;HTU21D;57704;51.112;5.878;2022-07-06T09:51:53;26.21;33.78
70300;HTU21D;57704;51.112;5.878;2022-07-06T09:54:20;26.34;33.42
70300;HTU21D;57704;51.112;5.878;2022-07-06T09:56:49;26.23;34.01
70300;HTU21D;57704;51.112;5.878;2022-07-06T09:59:22;26.22;33.89
70300;HTU21D;57704;51.112;5.878;2022-07-06T10:01:54;26.09;33.67
70300;HTU21D;57704;51.112;5.878;2022-07-06T10:04:21;25.91;34.01
70300;HTU21D;57704;51.112;5.878;2022-07-06T10:06:48;25.86;34.05
70300;HTU21D;57704;51.112;5.878;2022-07-06T10:09:15;26.04;33.89
70300;HTU21D;57704;51.112;5.878;2022-07-06T10:11:48;26.18;33.63
70300;HTU21D;57704;51.112;5.878;2022-07-06T10:14:18;26.39;33.39
70300;HTU21D;57704;51.112;5.878;2022-07-06T10:16:46;26.45;32.93
70300;HTU21D;57704;51.112;5.878;2022-07-06T10:19:19;26.47;33.06
70300;HTU21D;57704;51.112;5.878;2022-07-06T10:21:46;26.61;32.57
70300;HTU21D;57704;51.112;5.878;2022-07-06T10:24:12;26.79;32.35
70300;HTU21D;57704;51.112;5.878;2022-07-06T10:26:41;27.01;31.96
70300;HTU21D;57704;51.112;5.878;2022-07-06T10:29:08;27.08;31.68
70300;HTU21D;57704;51.112;5.878;2022-07-06T10:31:38;27.29;31.23
70300;HTU21D;57704;51.112;5.878;2022-07-06T10:34:12;27.41;30.74
70300;HTU21D;57704;51.112;5.878;2022-07-06T10:36:41;27.35;30.67
70300;HTU21D;57704;51.112;5.878;2022-07-06T10:39:09;27.06;31.01
70300;HTU21D;57704;51.112;5.878;2022-07-06T10:41:55;26.96;31.35
70300;HTU21D;57704;51.112;5.878;2022-07-06T10:44:26;27.04;31.18
70300;HTU21D;57704;51.112;5.878;2022-07-06T10:46:58;27.09;31.16
70300;HTU21D;57704;51.112;5.878;2022-07-06T10:49:28;27.10;31.39
70300;HTU21D;57704;51.112;5.878;2022-07-06T10:51:56;27.00;31.50
70300;HTU21D;57704;51.112;5.878;2022-07-06T10:54:23;26.81;30.85
70300;HTU21D;57704;51.112;5.878;2022-07-06T10:56:50;26.68;31.69
70300;HTU21D;57704;51.112;5.878;2022-07-06T10:59:21;26.39;31.89
70300;HTU21D;57704;51.112;5.878;2022-07-06T11:04:44;25.94;32.63
70300;HTU21D;57704;51.112;5.878;2022-07-06T11:07:18;25.93;32.51
70300;HTU21D;57704;51.112;5.878;2022-07-06T11:09:59;26.05;32.47
70300;HTU21D;57704;51.112;5.878;2022-07-06T11:12:26;26.15;32.28
70300;HTU21D;57704;51.112;5.878;2022-07-06T11:14:53;26.04;32.25
70300;HTU21D;57704;51.112;5.878;2022-07-06T11:17:20;26.04;32.48
70300;HTU21D;57704;51.112;5.878;2022-07-06T11:19:54;26.16;32.31
70300;HTU21D;57704;51.112;5.878;2022-07-06T11:22:21;26.11;32.21
70300;HTU21D;57704;51.112;5.878;2022-07-06T11:24:50;25.99;32.03
70300;HTU21D;57704;51.112;5.878;2022-07-06T11:27:23;26.13;32.04
70300;HTU21D;57704;51.112;5.878;2022-07-06T11:29:49;26.20;31.93
70300;HTU21D;57704;51.112;5.878;2022-07-06T11:32:23;26.18;31.58
70300;HTU21D;57704;51.112;5.878;2022-07-06T11:34:53;26.20;31.83
70300;HTU21D;57704;51.112;5.878;2022-07-06T11:37:19;26.22;32.25
70300;HTU21D;57704;51.112;5.878;2022-07-06T11:39:47;26.27;32.16
70300;HTU21D;57704;51.112;5.878;2022-07-06T11:42:16;26.38;32.15
70300;HTU21D;57704;51.112;5.878;2022-07-06T11:44:46;26.56;32.07
70300;HTU21D;57704;51.112;5.878;2022-07-06T11:47:13;26.72;31.88
70300;HTU21D;57704;51.112;5.878;2022-07-06T11:49:41;27.06;31.61
70300;HTU21D;57704;51.112;5.878;2022-07-06T11:52:10;27.28;31.16
70300;HTU21D;57704;51.112;5.878;2022-07-06T11:54:38;27.51;30.84
70300;HTU21D;57704;51.112;5.878;2022-07-06T11:57:08;27.72;30.29
70300;HTU21D;57704;51.112;5.878;2022-07-06T11:59:37;27.71;30.05
70300;HTU21D;57704;51.112;5.878;2022-07-06T12:02:08;27.76;30.04
70300;HTU21D;57704;51.112;5.878;2022-07-06T12:04:37;27.88;29.70
70300;HTU21D;57704;51.112;5.878;2022-07-06T12:07:06;28.00;29.55
70300;HTU21D;57704;51.112;5.878;2022-07-06T12:09:35;28.14;28.89
70300;HTU21D;57704;51.112;5.878;2022-07-06T12:12:03;28.18;28.37
70300;HTU21D;57704;51.112;5.878;2022-07-06T12:14:32;28.21;28.18
70300;HTU21D;57704;51.112;5.878;2022-07-06T12:17:07;28.26;28.00
70300;HTU21D;57704;51.112;5.878;2022-07-06T12:19:35;28.05;27.98
70300;HTU21D;57704;51.112;5.878;2022-07-06T12:22:02;27.90;28.63
70300;HTU21D;57704;51.112;5.878;2022-07-06T12:24:30;28.03;28.59
70300;HTU21D;57704;51.112;5.878;2022-07-06T12:26:57;28.39;28.46
70300;HTU21D;57704;51.112;5.878;2022-07-06T12:29:24;28.88;27.64
70300;HTU21D;57704;51.112;5.878;2022-07-06T12:31:55;29.41;27.22
70300;HTU21D;57704;51.112;5.878;2022-07-06T12:34:29;30.24;25.83
70300;HTU21D;57704;51.112;5.878;2022-07-06T12:37:09;30.91;25.08
70300;HTU21D;57704;51.112;5.878;2022-07-06T12:39:43;31.44;24.07
70300;HTU21D;57704;51.112;5.878;2022-07-06T12:42:10;31.97;24.01
70300;HTU21D;57704;51.112;5.878;2022-07-06T12:44:44;32.70;23.00
70300;HTU21D;57704;51.112;5.878;2022-07-06T12:47:11;33.21;22.49
70300;HTU21D;57704;51.112;5.878;2022-07-06T12:49:38;33.76;21.35
70300;HTU21D;57704;51.112;5.878;2022-07-06T12:52:15;33.75;21.37
70300;HTU21D;57704;51.112;5.878;2022-07-06T12:54:50;33.50;21.34
70300;HTU21D;57704;51.112;5.878;2022-07-06T12:59:54;33.59;21.68
70300;HTU21D;57704;51.112;5.878;2022-07-06T13:02:31;33.70;21.21
70300;HTU21D;57704;51.112;5.878;2022-07-06T13:05:08;33.05;21.85
70300;HTU21D;57704;51.112;5.878;2022-07-06T13:07:43;32.61;22.39
70300;HTU21D;57704;51.112;5.878;2022-07-06T13:10:13;32.18;22.19
70300;HTU21D;57704;51.112;5.878;2022-07-06T13:13:08;31.64;23.23
70300;HTU21D;57704;51.112;5.878;2022-07-06T13:15:34;31.23;23.59
70300;HTU21D;57704;51.112;5.878;2022-07-06T13:18:01;30.94;23.83
70300;HTU21D;57704;51.112;5.878;2022-07-06T13:20:27;30.68;24.62
70300;HTU21D;57704;51.112;5.878;2022-07-06T13:22:54;30.49;25.30
70300;HTU21D;57704;51.112;5.878;2022-07-06T13:25:21;30.57;25.41
70300;HTU21D;57704;51.112;5.878;2022-07-06T13:27:48;30.67;25.13
70300;HTU21D;57704;51.112;5.878;2022-07-06T13:30:15;30.51;24.97
70300;HTU21D;57704;51.112;5.878;2022-07-06T13:32:41;30.40;25.54
70300;HTU21D;57704;51.112;5.878;2022-07-06T13:35:08;30.42;25.33
70300;HTU21D;57704;51.112;5.878;2022-07-06T13:37:35;30.57;25.51
70300;HTU21D;57704;51.112;5.878;2022-07-06T13:40:02;30.83;25.08
70300;HTU21D;57704;51.112;5.878;2022-07-06T13:42:29;30.63;25.23
70300;HTU21D;57704;51.112;5.878;2022-07-06T13:44:55;30.31;25.52
70300;HTU21D;57704;51.112;5.878;2022-07-06T13:47:24;30.16;25.66
70300;HTU21D;57704;51.112;5.878;2022-07-06T13:49:50;29.70;25.83
70300;HTU21D;57704;51.112;5.878;2022-07-06T13:52:17;29.27;26.54
70300;HTU21D;57704;51.112;5.878;2022-07-06T13:54:43;29.18;26.52
70300;HTU21D;57704;51.112;5.878;2022-07-06T13:57:10;29.28;26.33
70300;HTU21D;57704;51.112;5.878;2022-07-06T13:59:37;29.45;26.13
70300;HTU21D;57704;51.112;5.878;2022-07-06T14:02:03;29.43;26.36
70300;HTU21D;57704;51.112;5.878;2022-07-06T14:04:29;29.48;26.46
70300;HTU21D;57704;51.112;5.878;2022-07-06T14:06:56;29.61;26.69
70300;HTU21D;57704;51.112;5.878;2022-07-06T14:09:22;29.70;26.21
70300;HTU21D;57704;51.112;5.878;2022-07-06T14:11:48;29.73;26.29
70300;HTU21D;57704;51.112;5.878;2022-07-06T14:14:14;29.70;26.15
70300;HTU21D;57704;51.112;5.878;2022-07-06T14:16:40;29.62;25.85
70300;HTU21D;57704;51.112;5.878;2022-07-06T14:19:07;29.54;25.79
70300;HTU21D;57704;51.112;5.878;2022-07-06T14:21:33;29.57;25.03
70300;HTU21D;57704;51.112;5.878;2022-07-06T14:23:59;29.59;25.87
70300;HTU21D;57704;51.112;5.878;2022-07-06T14:26:25;29.60;25.97
70300;HTU21D;57704;51.112;5.878;2022-07-06T14:28:52;29.53;26.18
70300;HTU21D;57704;51.112;5.878;2022-07-06T14:31:18;29.46;25.43
70300;HTU21D;57704;51.112;5.878;2022-07-06T14:33:45;29.29;25.70
70300;HTU21D;57704;51.112;5.878;2022-07-06T14:36:12;28.93;26.36
70300;HTU21D;57704;51.112;5.878;2022-07-06T14:38:49;28.82;26.99
70300;HTU21D;57704;51.112;5.878;2022-07-06T14:41:16;28.76;27.10
70300;HTU21D;57704;51.112;5.878;2022-07-06T14:43:43;28.76;27.20
70300;HTU21D;57704;51.112;5.878;2022-07-06T14:46:13;28.83;27.13
70300;HTU21D;57704;51.112;5.878;2022-07-06T14:48:39;28.78;27.36
70300;HTU21D;57704;51.112;5.878;2022-07-06T14:51:05;28.85;27.41
70300;HTU21D;57704;51.112;5.878;2022-07-06T14:53:32;28.88;27.36
70300;HTU21D;57704;51.112;5.878;2022-07-06T14:55:58;28.90;26.99
70300;HTU21D;57704;51.112;5.878;2022-07-06T14:58:24;28.91;27.29
70300;HTU21D;57704;51.112;5.878;2022-07-06T15:00:50;28.95;27.33
70300;HTU21D;57704;51.112;5.878;2022-07-06T15:03:18;29.04;27.49
70300;HTU21D;57704;51.112;5.878;2022-07-06T15:05:44;29.00;27.66
70300;HTU21D;57704;51.112;5.878;2022-07-06T15:08:15;29.07;27.59
70300;HTU21D;57704;51.112;5.878;2022-07-06T15:10:44;29.12;27.66
70300;HTU21D;57704;51.112;5.878;2022-07-06T15:13:18;29.01;27.55
70300;HTU21D;57704;51.112;5.878;2022-07-06T15:15:44;28.84;28.02
70300;HTU21D;57704;51.112;5.878;2022-07-06T15:18:10;28.67;28.13
70300;HTU21D;57704;51.112;5.878;2022-07-06T15:20:37;28.50;28.25
70300;HTU21D;57704;51.112;5.878;2022-07-06T15:23:03;28.44;28.63
70300;HTU21D;57704;51.112;5.878;2022-07-06T15:25:30;28.54;28.45
70300;HTU21D;57704;51.112;5.878;2022-07-06T15:27:56;28.47;28.56